Wortham, Texas
Current Conditions -  °F | °C
As of 9:15 AM on Wednesday 22 Oct 2014 (Local Time) from KLXY Reporting Station
Clear Clear  
Wind Chill: 65°   Ceiling: Unl
Heat Index: 65°   Visibility: 10mi
Dew Point: 63°   Wind: 3mph
Humidity: 92%   Direction: 70°ENE
Pressure: 30.14"   Gusts: NA
Location:  31.79°N, 96.46°W
Report Text: KLXY 221415Z AUTO 07003KT 10SM CLR 18/17 A3014 RMK AO2 T01840170
Loading
Personal Weather Stations






























Interactive Weather Map
Tropical Storm Tracking
New forecast layout! Learn more

10-Day Weather Forecast

Advertisements
Track Severe Weather on mobile